createdAt,value
2023-03-20T00:00:42.788Z,98727.09
2023-03-20T00:03:14.938Z,98717.91
2023-03-20T00:08:41.097Z,98717.91
2023-03-20T00:11:34.021Z,98723.03
2023-03-20T00:14:09.913Z,98727.66
2023-03-20T00:16:46.340Z,98728.44
2023-03-20T00:19:24.088Z,98738.22
2023-03-20T00:21:58.264Z,98735.59
2023-03-20T00:24:30.714Z,98733.69
2023-03-20T00:27:03.649Z,98735.22
2023-03-20T00:29:36.379Z,98735.59
2023-03-20T00:32:15.861Z,98734.34
2023-03-20T00:34:47.728Z,98729.81
2023-03-20T00:37:20.541Z,98733.22
2023-03-20T00:39:52.742Z,98735.84
2023-03-20T00:42:26.358Z,98741.03
2023-03-20T00:44:59.591Z,98731.97
2023-03-20T00:47:36.454Z,98731.19
2023-03-20T00:50:27.445Z,98743.94
2023-03-20T00:53:01.034Z,98739.81
2023-03-20T00:55:33.490Z,98740.47
2023-03-20T00:58:07.035Z,98733.81
2023-03-20T01:00:42.829Z,98744.97
2023-03-20T01:03:25.687Z,98741.72
2023-03-20T01:05:57.647Z,98744.41
2023-03-20T01:08:30.369Z,98740.41
2023-03-20T01:11:02.785Z,98740.31
2023-03-20T01:13:40.712Z,98737.03
2023-03-20T01:16:23.277Z,98745.81
2023-03-20T01:18:57.165Z,98742.63
2023-03-20T01:21:29.318Z,98742.03
2023-03-20T01:24:02.272Z,98738.66
2023-03-20T01:26:43.337Z,98741.94
2023-03-20T01:29:28.009Z,98746.06
2023-03-20T01:31:59.968Z,98748.72
2023-03-20T01:34:33.062Z,98743.19
2023-03-20T01:37:13.754Z,98743.03
2023-03-20T01:39:46.970Z,98745.84
2023-03-20T01:42:38.532Z,98745.75
2023-03-20T01:45:23.391Z,98743.03
2023-03-20T01:47:56.070Z,98748.81
2023-03-20T01:50:34.792Z,98748.81
2023-03-20T01:53:21.998Z,98735.72
2023-03-20T01:56:01.054Z,98740.84
2023-03-20T01:58:49.367Z,98744.28
2023-03-20T02:01:21.585Z,98739.75
2023-03-20T02:03:57.766Z,98745.75
2023-03-20T02:07:00.657Z,98744.41
2023-03-20T02:09:56.013Z,98746.34
2023-03-20T02:12:39.997Z,98753.34
2023-03-20T02:15:16.863Z,98763.75
2023-03-20T02:18:04.311Z,98765.13
2023-03-20T02:21:12.939Z,98771.91
2023-03-20T02:24:30.830Z,98768.81
2023-03-20T02:27:07.772Z,98764.34
2023-03-20T02:29:57.965Z,98762.56
2023-03-20T02:33:20.027Z,98766.63
2023-03-20T02:36:13.434Z,98765.69
2023-03-20T02:39:17.220Z,98760.44
2023-03-20T02:42:35.229Z,98767.16
2023-03-20T02:45:47.951Z,98775.06
2023-03-20T02:48:57.648Z,98774.56
2023-03-20T02:51:56.884Z,98775.13
2023-03-20T02:54:49.970Z,98778.03
2023-03-20T02:57:38.010Z,98779.22
2023-03-20T03:00:28.667Z,98779.34
2023-03-20T03:03:17.897Z,98784.78
2023-03-20T03:06:10.993Z,98795.69
2023-03-20T03:08:48.381Z,98790.75
2023-03-20T03:11:21.487Z,98794.69
2023-03-20T03:13:58.805Z,98793.47
2023-03-20T03:16:36.420Z,98789.53
2023-03-20T03:19:23.133Z,98791.84
2023-03-20T03:21:56.032Z,98803.94
2023-03-20T03:24:41.266Z,98802.97
2023-03-20T03:27:24.118Z,98802.31
2023-03-20T03:30:08.139Z,98796.28
2023-03-20T03:32:50.263Z,98800.03
2023-03-20T03:35:24.570Z,98808.72
2023-03-20T03:38:27.433Z,98809.84
2023-03-20T03:41:26.791Z,98812.72
2023-03-20T03:44:11.813Z,98811.69
2023-03-20T03:46:58.865Z,98809.88
2023-03-20T03:49:38.884Z,98813.25
2023-03-20T03:52:16.860Z,98817.84
2023-03-20T03:55:04.871Z,98817.84
2023-03-20T03:57:50.930Z,98817.44
2023-03-20T04:00:27.798Z,98807.97
2023-03-20T04:03:00.275Z,98812.72
2023-03-20T04:05:35.523Z,98812.88
2023-03-20T04:08:09.332Z,98805.50
2023-03-20T04:10:41.429Z,98798.78
2023-03-20T04:13:16.784Z,98800.81
2023-03-20T04:15:49.598Z,98796.16
2023-03-20T04:18:22.178Z,98804.72
2023-03-20T04:20:55.154Z,98797.53
2023-03-20T04:23:27.169Z,98790.91
2023-03-20T04:26:01.755Z,98787.97
2023-03-20T04:28:35.356Z,98799.69
2023-03-20T04:31:28.565Z,98795.09
2023-03-20T04:34:20.020Z,98801.69
2023-03-20T04:37:30.523Z,98806.44
2023-03-20T04:40:11.984Z,98797.22
2023-03-20T04:42:47.217Z,98800.34
2023-03-20T04:45:20.863Z,98804.81
2023-03-20T04:47:53.212Z,98810.44
2023-03-20T04:50:29.168Z,98811.88
2023-03-20T04:53:01.668Z,98815.84
2023-03-20T04:55:35.490Z,98818.53
2023-03-20T04:58:07.741Z,98816.66
2023-03-20T05:00:40.890Z,98823.19
2023-03-20T05:03:13.320Z,98821.19
2023-03-20T05:05:46.516Z,98812.72
2023-03-20T05:08:19.151Z,98804.00
2023-03-20T05:10:53.145Z,98790.13
2023-03-20T05:13:44.316Z,98790.69
2023-03-20T05:16:31.089Z,98793.47
2023-03-20T05:19:18.150Z,98806.69
2023-03-20T05:22:10.307Z,98813.28
2023-03-20T05:25:02.372Z,98819.28
2023-03-20T05:28:07.067Z,98824.41
2023-03-20T05:30:56.566Z,98813.94
2023-03-20T05:33:59.639Z,98814.06
2023-03-20T05:36:43.249Z,98825.38
2023-03-20T05:39:33.370Z,98830.78
2023-03-20T05:42:32.866Z,98827.03
2023-03-20T05:45:08.496Z,98829.66
2023-03-20T05:47:47.270Z,98832.59
2023-03-20T05:50:50.230Z,98831.94
2023-03-20T05:53:41.583Z,98831.44
2023-03-20T05:56:50.115Z,98844.84
2023-03-20T05:59:28.488Z,98849.50
2023-03-20T06:05:35.193Z,98852.94
2023-03-20T06:08:31.073Z,98850.28
2023-03-20T06:11:05.163Z,98857.47
2023-03-20T06:13:41.741Z,98852.28
2023-03-20T06:16:13.813Z,98849.81
2023-03-20T06:18:46.933Z,98852.94
2023-03-20T06:21:19.469Z,98845.78
2023-03-20T06:24:11.597Z,98849.03
2023-03-20T06:26:44.861Z,98846.06
2023-03-20T06:29:18.645Z,98850.41
2023-03-20T06:31:53.038Z,98851.06
2023-03-20T06:34:32.344Z,98859.09
2023-03-20T06:37:05.088Z,98866.72
2023-03-20T06:39:37.538Z,98865.47
2023-03-20T06:42:15.090Z,98864.22
2023-03-20T06:44:50.581Z,98857.81
2023-03-20T06:47:44.258Z,98863.50
2023-03-20T06:50:18.717Z,98865.28
2023-03-20T06:52:52.310Z,98869.56
2023-03-20T06:55:50.487Z,98868.94
2023-03-20T06:58:22.983Z,98876.28
2023-03-20T07:00:57.795Z,98878.34
2023-03-20T07:03:30.158Z,98882.63
2023-03-20T07:06:05.423Z,98876.09
2023-03-20T07:08:37.951Z,98876.31
2023-03-20T07:11:11.818Z,98883.94
2023-03-20T07:13:44.053Z,98874.56
2023-03-20T07:16:30.265Z,98887.72
2023-03-20T07:19:04.556Z,98890.28
2023-03-20T07:21:40.364Z,98894.66
2023-03-20T07:24:13.179Z,98898.28
2023-03-20T07:26:48.632Z,98904.19
2023-03-20T07:29:20.594Z,98910.63
2023-03-20T07:34:55.525Z,98911.75
2023-03-20T07:37:28.302Z,98917.06
2023-03-20T07:40:05.984Z,98918.25
2023-03-20T07:42:40.506Z,98917.00
2023-03-20T07:48:12.689Z,98933.06
2023-03-20T07:51:08.208Z,98921.28
2023-03-20T07:53:40.223Z,98927.97
2023-03-20T07:56:18.235Z,98926.06
2023-03-20T07:58:50.581Z,98926.91
2023-03-20T08:01:46.905Z,98917.91
2023-03-20T08:04:23.363Z,98910.22
2023-03-20T08:06:55.377Z,98905.59
2023-03-20T08:09:28.740Z,98908.44
2023-03-20T08:12:01.284Z,98902.59
2023-03-20T08:14:36.400Z,98907.31
2023-03-20T08:17:15.439Z,98909.88
2023-03-20T08:23:03.210Z,98908.13
2023-03-20T08:25:36.526Z,98920.31
2023-03-20T08:28:09.447Z,98914.69
2023-03-20T08:30:43.642Z,98904.69
2023-03-20T08:33:37.022Z,98899.78
2023-03-20T08:36:13.792Z,98899.34
2023-03-20T08:38:48.264Z,98890.50
2023-03-20T08:41:21.827Z,98899.16
2023-03-20T08:44:14.473Z,98904.22
2023-03-20T08:46:48.366Z,98895.31
2023-03-20T08:49:23.666Z,98885.94
2023-03-20T08:51:56.654Z,98893.09
2023-03-20T08:54:29.086Z,98892.38
2023-03-20T08:57:01.448Z,98889.50
2023-03-20T08:59:34.023Z,98881.84
2023-03-20T09:02:08.251Z,98888.41
2023-03-20T09:04:41.857Z,98899.41
2023-03-20T09:07:16.096Z,98885.16
2023-03-20T09:09:50.155Z,98889.13
2023-03-20T09:12:23.890Z,98890.78
2023-03-20T09:14:55.806Z,98895.00
2023-03-20T09:17:29.942Z,98889.88
2023-03-20T09:20:02.084Z,98888.31
2023-03-20T09:22:36.404Z,98892.38
2023-03-20T09:25:08.942Z,98895.69
2023-03-20T09:27:41.973Z,98898.06
2023-03-20T09:30:35.888Z,98902.19
2023-03-20T09:33:09.128Z,98905.97
2023-03-20T09:35:43.656Z,98897.69
2023-03-20T09:38:17.530Z,98903.84
2023-03-20T09:41:05.211Z,98910.66
2023-03-20T09:44:28.346Z,98914.88
2023-03-20T09:47:20.363Z,98920.88
2023-03-20T09:53:19.085Z,98909.66
2023-03-20T09:55:53.950Z,98910.91
2023-03-20T09:58:28.291Z,98908.94
2023-03-20T10:01:04.888Z,98912.28
2023-03-20T10:04:09.019Z,98904.38
2023-03-20T10:06:43.010Z,98907.00
2023-03-20T10:09:28.100Z,98911.63
2023-03-20T10:13:12.224Z,98905.69
2023-03-20T10:16:16.742Z,98910.28
2023-03-20T10:19:40.134Z,98909.63
2023-03-20T10:22:27.458Z,98909.66
2023-03-20T10:28:48.419Z,98914.84
2023-03-20T10:32:05.976Z,98912.25
2023-03-20T10:35:08.932Z,98912.91
2023-03-20T10:37:49.872Z,98918.19
2023-03-20T10:40:36.667Z,98920.16
2023-03-20T10:43:19.128Z,98918.19
2023-03-20T10:46:45.571Z,98910.28
2023-03-20T10:49:51.617Z,98917.56
2023-03-20T10:52:29.745Z,98912.94
2023-03-20T10:55:10.439Z,98914.13
2023-03-20T10:57:51.594Z,98913.09
2023-03-20T11:00:27.055Z,98915.78
2023-03-20T11:02:59.443Z,98915.41
2023-03-20T11:05:36.940Z,98910.84
2023-03-20T11:08:13.886Z,98907.59
2023-03-20T11:10:46.308Z,98906.97
2023-03-20T11:13:34.805Z,98908.28
2023-03-20T11:16:31.918Z,98893.00
2023-03-20T11:19:10.460Z,98893.59
2023-03-20T11:21:50.688Z,98900.00
2023-03-20T11:24:45.009Z,98899.97
2023-03-20T11:27:26.344Z,98892.16
2023-03-20T11:30:01.379Z,98905.28
2023-03-20T11:32:41.020Z,98895.88
2023-03-20T11:35:18.955Z,98889.47
2023-03-20T11:37:55.072Z,98897.78
2023-03-20T11:40:32.456Z,98891.28
2023-03-20T11:43:18.936Z,98893.81
2023-03-20T11:45:57.100Z,98886.22
2023-03-20T11:48:47.874Z,98885.38
2023-03-20T11:51:21.755Z,98887.13
2023-03-20T11:54:07.499Z,98883.88
2023-03-20T11:56:54.333Z,98885.59
2023-03-20T11:59:35.440Z,98881.88
2023-03-20T12:02:22.783Z,98880.66
2023-03-20T12:05:00.495Z,98882.13
2023-03-20T12:07:38.560Z,98873.63
2023-03-20T12:10:15.185Z,98878.78
2023-03-20T12:13:29.184Z,98869.47
2023-03-20T12:16:06.393Z,98871.25
2023-03-20T12:18:49.501Z,98867.75
2023-03-20T12:21:43.482Z,98872.56
2023-03-20T12:24:46.852Z,98866.78
2023-03-20T12:27:31.490Z,98867.41
2023-03-20T12:30:10.088Z,98861.34
2023-03-20T12:32:45.209Z,98858.88
2023-03-20T12:35:32.852Z,98846.47
2023-03-20T12:38:30.291Z,98844.59
2023-03-20T12:41:16.172Z,98835.66
2023-03-20T12:44:08.659Z,98831.69
2023-03-20T12:46:51.824Z,98820.00
2023-03-20T12:49:48.263Z,98816.44
2023-03-20T12:53:01.594Z,98817.84
2023-03-20T12:55:54.703Z,98808.03
2023-03-20T12:58:52.865Z,98803.78
2023-03-20T13:02:16.308Z,98808.22
2023-03-20T13:05:12.646Z,98805.72
2023-03-20T13:08:12.037Z,98805.34
2023-03-20T13:11:33.754Z,98797.19
2023-03-20T13:14:57.195Z,98788.28
2023-03-20T13:17:39.415Z,98791.06
2023-03-20T13:20:25.558Z,98778.44
2023-03-20T13:23:12.418Z,98779.09
2023-03-20T13:26:20.094Z,98765.06
2023-03-20T13:29:34.510Z,98765.75
2023-03-20T13:32:41.515Z,98763.97
2023-03-20T13:35:23.696Z,98774.66
2023-03-20T13:38:01.582Z,98778.13
2023-03-20T13:40:44.239Z,98772.28
2023-03-20T13:43:46.694Z,98781.41
2023-03-20T13:46:25.543Z,98780.69
2023-03-20T13:49:04.805Z,98773.06
2023-03-20T13:52:07.725Z,98765.31
2023-03-20T13:54:59.256Z,98781.22
2023-03-20T13:57:52.637Z,98756.28
2023-03-20T14:00:50.401Z,98772.03
2023-03-20T14:03:28.585Z,98765.66
2023-03-20T14:06:01.165Z,98763.06
2023-03-20T14:08:38.123Z,98757.13
2023-03-20T14:11:35.793Z,98758.63
2023-03-20T14:14:20.050Z,98756.09
2023-03-20T14:17:09.068Z,98754.81
2023-03-20T14:19:41.714Z,98754.16
2023-03-20T14:22:21.587Z,98753.38
2023-03-20T14:25:05.185Z,98746.38
2023-03-20T14:28:13.344Z,98748.69
2023-03-20T14:30:52.613Z,98745.66
2023-03-20T14:33:27.546Z,98742.94
2023-03-20T14:36:21.222Z,98746.13
2023-03-20T14:39:19.776Z,98740.97
2023-03-20T14:42:51.974Z,98739.53
2023-03-20T14:45:45.657Z,98737.59
2023-03-20T14:48:43.119Z,98737.09
2023-03-20T14:51:41.256Z,98747.75
2023-03-20T14:54:31.424Z,98747.19
2023-03-20T14:57:19.937Z,98745.31
2023-03-20T14:59:52.659Z,98742.59
2023-03-20T15:02:35.273Z,98743.88
2023-03-20T15:05:19.980Z,98740.50
2023-03-20T15:07:52.705Z,98734.94
2023-03-20T15:10:28.950Z,98734.84
2023-03-20T15:13:04.637Z,98734.97
2023-03-20T15:15:37.651Z,98728.75
2023-03-20T15:18:14.294Z,98722.22
2023-03-20T15:20:47.324Z,98730.28
2023-03-20T15:23:19.872Z,98726.44
2023-03-20T15:25:52.893Z,98729.81
2023-03-20T15:28:27.109Z,98723.22
2023-03-20T15:31:00.045Z,98728.00
2023-03-20T15:33:41.893Z,98728.34
2023-03-20T15:36:25.567Z,98727.75
2023-03-20T15:39:29.209Z,98720.94
2023-03-20T15:42:05.792Z,98727.06
2023-03-20T15:44:40.330Z,98722.97
2023-03-20T15:47:22.894Z,98711.81
2023-03-20T15:50:04.790Z,98715.91
2023-03-20T15:52:42.724Z,98714.53
2023-03-20T15:55:20.318Z,98713.94
2023-03-20T15:57:56.577Z,98715.78
2023-03-20T16:00:39.353Z,98711.59
2023-03-20T16:03:19.109Z,98711.66
2023-03-20T16:05:52.553Z,98701.72
2023-03-20T16:08:33.414Z,98701.84
2023-03-20T16:11:17.884Z,98693.75
2023-03-20T16:13:51.519Z,98692.44
2023-03-20T16:16:25.268Z,98683.63
2023-03-20T16:18:59.375Z,98684.53
2023-03-20T16:21:37.632Z,98682.63
2023-03-20T16:24:17.021Z,98679.38
2023-03-20T16:26:53.162Z,98685.53
2023-03-20T16:29:28.037Z,98680.34
2023-03-20T16:32:06.280Z,98680.59
2023-03-20T16:34:39.659Z,98678.72
2023-03-20T16:37:38.246Z,98677.97
2023-03-20T16:40:33.145Z,98677.53
2023-03-20T16:43:32.164Z,98685.53
2023-03-20T16:46:07.384Z,98691.97
2023-03-20T16:48:39.849Z,98669.28
2023-03-20T16:51:29.754Z,98672.59
2023-03-20T16:54:01.786Z,98676.34
2023-03-20T16:56:38.355Z,98687.72
2023-03-20T16:59:17.537Z,98685.19
2023-03-20T17:01:53.280Z,98691.91
2023-03-20T17:04:35.464Z,98689.94
2023-03-20T17:07:19.415Z,98687.28
2023-03-20T17:10:18.830Z,98689.94
2023-03-20T17:12:54.498Z,98684.00
2023-03-20T17:15:27.299Z,98680.03
2023-03-20T17:17:59.188Z,98675.38
2023-03-20T17:20:32.096Z,98684.00
2023-03-20T17:23:05.095Z,98681.38
2023-03-20T17:25:37.814Z,98679.41
2023-03-20T17:28:24.119Z,98678.09
2023-03-20T17:30:56.426Z,98678.09
2023-03-20T17:33:29.791Z,98678.16
2023-03-20T17:36:02.173Z,98684.75
2023-03-20T17:38:34.774Z,98686.72
2023-03-20T17:41:17.858Z,98675.50
2023-03-20T17:43:51.919Z,98674.88
2023-03-20T17:46:30.344Z,98674.22
2023-03-20T17:49:13.359Z,98682.81
2023-03-20T17:51:45.852Z,98678.16
2023-03-20T17:54:18.801Z,98690.72
2023-03-20T17:56:50.696Z,98686.72
2023-03-20T17:59:25.130Z,98694.00
2023-03-20T18:01:57.350Z,98698.66
2023-03-20T18:04:29.930Z,98700.63
2023-03-20T18:07:02.727Z,98702.59
2023-03-20T18:09:35.328Z,98707.16
2023-03-20T18:12:12.586Z,98695.28
2023-03-20T18:14:46.941Z,98701.81
2023-03-20T18:17:18.952Z,98707.13
2023-03-20T18:19:51.950Z,98712.31
2023-03-20T18:22:23.922Z,98720.13
2023-03-20T18:24:56.936Z,98724.06
2023-03-20T18:27:29.239Z,98716.09
2023-03-20T18:30:01.850Z,98723.97
2023-03-20T18:32:33.833Z,98727.22
2023-03-20T18:35:06.919Z,98725.84
2023-03-20T18:37:41.249Z,98735.69
2023-03-20T18:40:27.096Z,98736.91
2023-03-20T18:42:59.600Z,98736.88
2023-03-20T18:45:32.681Z,98733.59
2023-03-20T18:48:04.634Z,98732.88
2023-03-20T18:50:43.425Z,98737.41
2023-03-20T18:53:15.560Z,98741.94
2023-03-20T18:55:48.517Z,98735.28
2023-03-20T18:58:27.866Z,98742.53
2023-03-20T19:01:00.582Z,98729.38
2023-03-20T19:03:39.569Z,98738.69
2023-03-20T19:06:18.534Z,98737.38
2023-03-20T19:08:52.361Z,98737.38
2023-03-20T19:11:24.497Z,98732.03
2023-03-20T19:13:57.139Z,98733.97
2023-03-20T19:16:31.887Z,98726.00
2023-03-20T19:19:06.947Z,98720.75
2023-03-20T19:21:38.859Z,98713.66
2023-03-20T19:24:12.102Z,98706.53
2023-03-20T19:26:44.008Z,98709.47
2023-03-20T19:29:18.310Z,98706.56
2023-03-20T19:31:50.438Z,98703.00
2023-03-20T19:35:00.774Z,98708.56
2023-03-20T19:37:15.225Z,98723.44
2023-03-20T19:39:47.808Z,98715.94
2023-03-20T19:42:47.493Z,98724.41
2023-03-20T19:45:12.271Z,98716.38
2023-03-20T19:47:44.735Z,98715.56
2023-03-20T19:50:31.665Z,98724.59
2023-03-20T19:53:08.163Z,98720.59
2023-03-20T19:55:40.933Z,98723.22
2023-03-20T19:58:13.135Z,98722.41
2023-03-20T20:00:58.894Z,98717.75
2023-03-20T20:03:32.804Z,98715.75
2023-03-20T20:06:05.002Z,98720.34
2023-03-20T20:08:48.081Z,98714.38
2023-03-20T20:11:21.904Z,98706.53
2023-03-20T20:14:13.406Z,98710.50
2023-03-20T20:16:48.793Z,98700.59
2023-03-20T20:19:21.467Z,98701.81
2023-03-20T20:24:45.966Z,98694.88
2023-03-20T20:27:18.989Z,98676.25
2023-03-20T20:29:53.342Z,98705.28
2023-03-20T20:32:27.919Z,98702.78
2023-03-20T20:40:49.801Z,98697.19
2023-03-20T20:43:39.248Z,98710.53
2023-03-20T20:46:14.701Z,98714.53
2023-03-20T20:48:46.589Z,98673.34
2023-03-20T20:51:19.636Z,98704.03
2023-03-20T20:53:51.657Z,98692.63
2023-03-20T20:56:24.208Z,98699.78
2023-03-20T20:58:56.136Z,98697.78
2023-03-20T21:01:28.768Z,98704.84
2023-03-20T21:04:01.275Z,98708.06
2023-03-20T21:07:05.568Z,98721.34
2023-03-20T21:09:27.451Z,98717.94
2023-03-20T21:12:00.951Z,98716.56
2023-03-20T21:14:33.718Z,98712.44
2023-03-20T21:17:06.463Z,98713.78
2023-03-20T21:19:43.339Z,98701.63
2023-03-20T21:22:16.936Z,98693.66
2023-03-20T21:24:53.780Z,98701.63
2023-03-20T21:27:30.112Z,98695.03
2023-03-20T21:30:04.287Z,98704.47
2023-03-20T21:32:36.984Z,98698.47
2023-03-20T21:35:10.011Z,98699.09
2023-03-20T21:40:34.493Z,98695.09
2023-03-20T21:43:06.619Z,98691.19
2023-03-20T21:46:20.923Z,98707.19
2023-03-20T21:58:09.843Z,98691.13
2023-03-20T22:02:58.269Z,98700.84
2023-03-20T22:09:38.731Z,98698.19
2023-03-20T22:15:03.941Z,98678.44
2023-03-20T22:17:52.803Z,98685.78
2023-03-20T22:35:31.425Z,98653.50
2023-03-20T22:38:34.481Z,98671.94
2023-03-20T22:44:35.410Z,98675.41
2023-03-20T22:46:46.646Z,98679.31
2023-03-20T22:49:10.977Z,98677.97
2023-03-20T22:51:57.424Z,98670.59
2023-03-20T22:54:35.931Z,98674.69
2023-03-20T22:57:08.564Z,98674.75
2023-03-20T22:59:40.601Z,98677.22
2023-03-20T23:02:13.224Z,98674.56
2023-03-20T23:04:45.377Z,98673.22
2023-03-20T23:07:17.980Z,98662.47
2023-03-20T23:09:50.009Z,98663.34
2023-03-20T23:12:22.589Z,98671.13
2023-03-20T23:14:55.491Z,98673.78
2023-03-20T23:17:28.073Z,98671.25
2023-03-20T23:20:10.770Z,98656.38
2023-03-20T23:22:44.258Z,98657.00
2023-03-20T23:25:27.436Z,98646.66
2023-03-20T23:28:03.945Z,98662.56
2023-03-20T23:30:45.345Z,98650.94
2023-03-20T23:33:20.572Z,98646.13
2023-03-20T23:36:01.268Z,98640.78
2023-03-20T23:38:41.792Z,98644.25
2023-03-20T23:41:14.200Z,98633.56
2023-03-20T23:43:46.830Z,98625.94
2023-03-20T23:46:18.862Z,98641.91
2023-03-20T23:48:51.862Z,98644.47
2023-03-20T23:51:23.826Z,98631.34
2023-03-20T23:53:56.433Z,98633.38
2023-03-20T23:56:28.532Z,98634.66
2023-03-20T23:59:14.684Z,98645.16
